Time;durP1;ratioP1;P1;durP2;ratioP2;P2;SDS_P1;SDS_P2;PMS_P1;PMS_P2;Temp;Humidity;BMP_temperature;BMP_pressure;BME280_temperature;BME280_humidity;BME280_pressure;Samples;Min_cycle;Max_cycle;Signal;HPM_P1;HPM_P2
2022/12/27 00:01:19;;;;;;;0.20;0.00;;;10.50;99.90;;;;;;20961880;28;20430;-70
2022/12/27 00:11:26;;;;;;;0.20;0.00;;;10.50;99.90;;;;;;21032223;28;20416;-73
2022/12/27 00:21:31;;;;;;;0.20;0.10;;;10.60;99.90;;;;;;20943942;28;20386;-72
2022/12/27 00:31:35;;;;;;;0.20;0.10;;;10.30;99.90;;;;;;20978667;28;20453;-73
2022/12/27 00:41:40;;;;;;;0.20;0.00;;;10.40;99.90;;;;;;20959597;28;20796;-73
2022/12/27 00:51:44;;;;;;;0.20;0.10;;;10.50;99.90;;;;;;20978169;28;20761;-73
2022/12/27 01:01:50;;;;;;;0.20;0.10;;;10.40;99.90;;;;;;20951403;28;20394;-73
2022/12/27 01:11:54;;;;;;;0.20;0.10;;;10.80;99.90;;;;;;20977001;28;20433;-72
2022/12/27 01:21:59;;;;;;;0.20;0.00;;;10.30;99.90;;;;;;20977306;28;20414;-72
2022/12/27 01:32:03;;;;;;;0.20;0.00;;;10.40;99.90;;;;;;20964707;28;20461;-72
2022/12/27 01:52:39;;;;;;;0.20;0.00;;;10.30;99.90;;;;;;20970715;28;20413;-72
2022/12/27 02:02:45;;;;;;;0.20;0.00;;;10.30;99.90;;;;;;20989860;28;20502;-72
2022/12/27 02:12:48;;;;;;;0.20;0.08;;;9.90;99.90;;;;;;20962613;28;20410;-71
2022/12/27 02:34:09;;;;;;;0.20;0.10;;;9.50;99.90;;;;;;20986925;28;20413;-71
2022/12/27 02:55:02;;;;;;;0.20;0.00;;;9.40;99.90;;;;;;20985181;28;20404;-72
2022/12/27 03:05:16;;;;;;;0.20;0.10;;;9.40;99.90;;;;;;20977524;28;20410;-72
2022/12/27 03:25:57;;;;;;;0.20;0.10;;;10.10;99.90;;;;;;20982505;28;20448;-72
2022/12/27 03:46:42;;;;;;;0.20;0.03;;;10.40;99.90;;;;;;20871167;28;20417;-72
2022/12/27 03:56:47;;;;;;;0.20;0.10;;;10.40;99.90;;;;;;20979569;28;20752;-72
2022/12/27 04:06:51;;;;;;;0.20;0.10;;;10.60;99.90;;;;;;20961813;28;20414;-73
2022/12/27 04:37:40;;;;;;;0.20;0.10;;;11.20;99.90;;;;;;20978663;28;20431;-72
2022/12/27 04:58:06;;;;;;;0.20;0.07;;;11.50;99.90;;;;;;20976429;28;20386;-71
2022/12/27 05:18:34;;;;;;;0.20;0.10;;;11.20;99.90;;;;;;20975037;28;20394;-72
2022/12/27 05:28:38;;;;;;;0.20;0.10;;;11.00;99.90;;;;;;21012751;28;20397;-72
2022/12/27 05:38:43;;;;;;;0.20;0.10;;;11.10;99.90;;;;;;20975359;28;20405;-75
2022/12/27 05:48:47;;;;;;;0.20;0.10;;;10.90;99.90;;;;;;20990634;28;20409;-72
2022/12/27 05:58:54;;;;;;;0.20;0.10;;;11.00;99.90;;;;;;20990095;28;20402;-73
2022/12/27 06:08:58;;;;;;;0.20;0.00;;;11.00;99.90;;;;;;20989080;28;20484;-71
2022/12/27 06:19:03;;;;;;;0.20;0.00;;;11.30;99.90;;;;;;20997204;28;20863;-73
2022/12/27 06:29:07;;;;;;;0.20;0.10;;;11.30;99.90;;;;;;21035288;28;20853;-72
2022/12/27 06:39:12;;;;;;;0.20;0.10;;;11.50;99.90;;;;;;21070052;28;20494;-72
2022/12/27 06:49:16;;;;;;;0.20;0.10;;;11.40;99.90;;;;;;21050407;28;20444;-72
2022/12/27 06:59:21;;;;;;;0.20;0.10;;;11.20;99.90;;;;;;21049518;28;20394;-72
2022/12/27 07:09:25;;;;;;;0.20;0.10;;;11.00;99.90;;;;;;21066942;28;20425;-73
2022/12/27 07:19:30;;;;;;;0.20;0.10;;;10.80;99.90;;;;;;21048208;28;20469;-73
2022/12/27 07:29:34;;;;;;;0.20;0.10;;;10.70;99.90;;;;;;21045300;28;20408;-73
2022/12/27 07:39:47;;;;;;;0.20;0.10;;;11.20;99.90;;;;;;21065207;28;20404;-73
2022/12/27 07:49:51;;;;;;;0.20;0.00;;;11.20;99.90;;;;;;21045169;28;20405;-73
2022/12/27 07:59:56;;;;;;;0.20;0.00;;;11.30;99.90;;;;;;21044499;28;20724;-73
2022/12/27 08:10:01;;;;;;;0.20;0.10;;;11.60;99.90;;;;;;21024909;28;20497;-74
2022/12/27 08:20:07;;;;;;;0.20;0.10;;;11.90;99.90;;;;;;21032351;28;20392;-72
2022/12/27 08:30:11;;;;;;;0.20;0.10;;;12.30;99.90;;;;;;21025027;28;20440;-68
2022/12/27 08:40:17;;;;;;;0.20;0.10;;;12.80;99.90;;;;;;21043757;28;20505;-68
2022/12/27 08:50:20;;;;;;;0.20;0.10;;;13.40;99.90;;;;;;20976581;28;20416;-71
2022/12/27 09:00:26;;;;;;;0.20;0.10;;;14.00;99.90;;;;;;20957467;28;20394;-75
2022/12/27 09:10:30;;;;;;;0.20;0.10;;;14.40;99.90;;;;;;20949334;28;20492;-71
2022/12/27 09:20:37;;;;;;;0.20;0.10;;;14.60;99.90;;;;;;20975349;28;20761;-70
2022/12/27 09:30:41;;;;;;;0.20;0.10;;;15.10;99.90;;;;;;20957244;28;20447;-71
2022/12/27 09:40:53;;;;;;;0.20;0.10;;;15.40;99.90;;;;;;21057806;28;20404;-72
2022/12/27 09:51:01;;;;;;;0.20;0.00;;;15.60;99.90;;;;;;20893320;28;20416;-72
2022/12/27 10:01:19;;;;;;;0.20;0.00;;;15.80;99.90;;;;;;20887612;28;20392;-73
2022/12/27 10:11:36;;;;;;;0.20;0.10;;;16.30;99.90;;;;;;20905045;28;20798;-72
2022/12/27 10:21:52;;;;;;;0.20;0.10;;;16.90;99.90;;;;;;20900592;28;20402;-73
2022/12/27 10:31:56;;;;;;;0.20;0.00;;;17.40;99.90;;;;;;20867249;28;20957;-74
2022/12/27 10:42:09;;;;;;;0.20;0.03;;;17.90;99.90;;;;;;20883676;28;20875;-74
2022/12/27 10:52:19;;;;;;;0.20;0.10;;;18.20;99.90;;;;;;20883359;28;20412;-73
2022/12/27 11:02:24;;;;;;;0.20;0.00;;;18.60;99.90;;;;;;20899138;28;20402;-72
2022/12/27 11:12:30;;;;;;;0.20;0.00;;;19.70;99.90;;;;;;20881437;28;20435;-73
2022/12/27 11:22:43;;;;;;;0.20;0.00;;;20.10;99.90;;;;;;20864363;28;20499;-73
2022/12/27 11:32:47;;;;;;;0.20;0.00;;;20.80;99.90;;;;;;20898444;28;20502;-73
2022/12/27 11:42:59;;;;;;;0.20;0.00;;;20.70;99.90;;;;;;20896969;28;20408;-73
2022/12/27 11:53:14;;;;;;;0.20;0.00;;;20.90;99.90;;;;;;20862351;28;20434;-76
2022/12/27 12:03:51;;;;;;;0.20;0.00;;;21.40;99.90;;;;;;20915184;28;20402;-73
2022/12/27 12:14:35;;;;;;;0.20;0.00;;;21.80;99.90;;;;;;20939684;28;20531;-75
2022/12/27 12:25:01;;;;;;;0.20;0.00;;;22.10;99.90;;;;;;20944537;28;20747;-74
2022/12/27 12:35:25;;;;;;;0.20;0.05;;;22.10;99.90;;;;;;20929704;28;20497;-72
2022/12/27 12:45:50;;;;;;;0.20;0.00;;;21.90;99.90;;;;;;20944931;28;20927;-72
2022/12/27 12:56:07;;;;;;;0.20;0.10;;;22.00;99.90;;;;;;20891988;28;20431;-72
2022/12/27 13:06:22;;;;;;;0.20;0.10;;;21.90;99.90;;;;;;20903433;28;20486;-74
2022/12/27 13:16:46;;;;;;;0.20;0.00;;;20.90;99.90;;;;;;20969943;28;20419;-71
2022/12/27 13:27:01;;;;;;;0.20;0.00;;;21.10;99.90;;;;;;20988889;28;20407;-72
2022/12/27 13:37:14;;;;;;;0.20;0.00;;;20.10;99.90;;;;;;20929864;28;20395;-72
2022/12/27 13:47:45;;;;;;;0.20;0.00;;;19.90;99.90;;;;;;20935565;28;20420;-72
2022/12/27 13:58:26;;;;;;;0.20;0.10;;;20.80;99.90;;;;;;20943882;28;20426;-73
2022/12/27 14:08:49;;;;;;;0.20;0.00;;;21.00;99.90;;;;;;20992227;28;20416;-72
2022/12/27 14:19:21;;;;;;;0.20;0.00;;;20.90;99.90;;;;;;21067242;28;20396;-72
2022/12/27 14:30:04;;;;;;;0.20;0.00;;;22.10;99.90;;;;;;21047095;28;20895;-71
2022/12/27 14:40:44;;;;;;;0.20;0.00;;;23.30;99.90;;;;;;21046790;28;20438;-73
2022/12/27 14:51:26;;;;;;;0.20;0.00;;;22.10;99.90;;;;;;20959525;28;20404;-73
2022/12/27 15:01:59;;;;;;;0.20;0.00;;;19.80;99.90;;;;;;21028965;28;20466;-74
2022/12/27 15:12:14;;;;;;;0.20;0.03;;;19.50;99.90;;;;;;21044680;28;20439;-72
2022/12/27 15:22:28;;;;;;;0.20;0.00;;;19.90;99.90;;;;;;21000902;28;20490;-78
2022/12/27 15:32:42;;;;;;;0.20;0.03;;;20.60;99.90;;;;;;20958262;28;20513;-72
2022/12/27 15:42:59;;;;;;;0.20;0.00;;;20.10;99.90;;;;;;20975057;28;20443;-71
2022/12/27 15:53:35;;;;;;;0.20;0.00;;;19.70;99.90;;;;;;20964362;28;20418;-72
2022/12/27 16:03:39;;;;;;;0.20;0.00;;;18.80;99.90;;;;;;20959738;28;20402;-71
2022/12/27 16:14:11;;;;;;;0.20;0.00;;;17.50;99.90;;;;;;21048236;28;20404;-72
2022/12/27 16:24:20;;;;;;;0.20;0.10;;;16.40;99.90;;;;;;21056703;28;20400;-72
2022/12/27 16:34:28;;;;;;;0.20;0.05;;;16.20;99.90;;;;;;21019359;28;21079;-73
2022/12/27 16:44:54;;;;;;;0.20;0.07;;;16.00;99.90;;;;;;21010505;28;20405;-72
2022/12/27 16:55:13;;;;;;;0.20;0.00;;;15.70;99.90;;;;;;21048760;28;20771;-72
2022/12/27 17:05:36;;;;;;;0.20;0.00;;;15.40;99.90;;;;;;21048372;28;20400;-73
2022/12/27 17:15:53;;;;;;;0.20;0.10;;;14.20;99.90;;;;;;21076418;28;20396;-72
2022/12/27 17:26:19;;;;;;;0.20;0.00;;;13.90;99.90;;;;;;21023437;28;20394;-72
2022/12/27 17:36:37;;;;;;;0.20;0.10;;;13.60;99.90;;;;;;20957271;28;20398;-73
2022/12/27 17:46:50;;;;;;;0.20;0.10;;;13.30;99.90;;;;;;20977917;28;20409;-74
2022/12/27 18:07:27;;;;;;;0.20;0.00;;;12.80;99.90;;;;;;21049592;28;20906;-73
2022/12/27 18:17:36;;;;;;;0.20;0.10;;;12.60;99.90;;;;;;21021330;28;20401;-74
2022/12/27 18:27:41;;;;;;;0.20;0.10;;;12.40;99.90;;;;;;20965817;28;20476;-71
2022/12/27 18:37:45;;;;;;;0.20;0.00;;;12.20;99.90;;;;;;20965112;28;20398;-74
2022/12/27 18:47:53;;;;;;;0.20;0.03;;;12.10;99.90;;;;;;20964203;28;20417;-71
2022/12/27 18:58:03;;;;;;;0.20;0.00;;;11.80;99.90;;;;;;20981656;28;20406;-73
2022/12/27 19:08:18;;;;;;;0.20;0.00;;;11.80;99.90;;;;;;20961582;28;20604;-73
2022/12/27 19:18:26;;;;;;;0.20;0.10;;;11.70;99.90;;;;;;20978745;28;20390;-72
2022/12/27 19:28:32;;;;;;;0.20;0.10;;;11.60;99.90;;;;;;20960116;28;20412;-74
2022/12/27 19:38:37;;;;;;;0.20;0.10;;;11.60;99.90;;;;;;20958376;28;20425;-72
2022/12/27 19:48:51;;;;;;;0.20;0.00;;;11.50;99.90;;;;;;20976553;28;20483;-73
2022/12/27 19:59:17;;;;;;;0.20;0.00;;;11.50;99.90;;;;;;20957207;28;20406;-73
2022/12/27 20:09:22;;;;;;;0.20;0.00;;;11.40;99.90;;;;;;20974322;28;20785;-73
2022/12/27 20:19:25;;;;;;;0.20;0.00;;;11.40;99.90;;;;;;20973482;28;20453;-73
2022/12/27 20:29:30;;;;;;;0.20;0.00;;;11.10;99.90;;;;;;20974360;28;20773;-73
2022/12/27 20:39:35;;;;;;;0.20;0.10;;;11.00;99.90;;;;;;20973422;28;21019;-72
2022/12/27 20:49:41;;;;;;;0.20;0.10;;;11.40;99.90;;;;;;20973584;28;20410;-72
2022/12/27 20:59:44;;;;;;;0.20;0.10;;;11.20;99.90;;;;;;20957099;28;20558;-73
2022/12/27 21:09:49;;;;;;;0.20;0.10;;;11.00;99.90;;;;;;21032213;28;20763;-73
2022/12/27 21:19:53;;;;;;;0.20;0.10;;;10.30;99.90;;;;;;21035720;28;20389;-76
2022/12/27 21:29:58;;;;;;;0.20;0.00;;;10.60;99.90;;;;;;21060745;28;20431;-76
2022/12/27 21:40:03;;;;;;;0.20;0.10;;;10.30;99.90;;;;;;21051232;28;20400;-75
2022/12/27 21:50:09;;;;;;;0.20;0.10;;;10.50;99.90;;;;;;20890987;28;20830;-73
2022/12/27 22:00:14;;;;;;;0.20;0.00;;;10.30;99.90;;;;;;20946069;28;20463;-73
2022/12/27 22:10:19;;;;;;;0.20;0.00;;;10.60;99.90;;;;;;20971096;28;20410;-72
2022/12/27 22:20:23;;;;;;;0.20;0.07;;;10.10;99.90;;;;;;20954655;28;20406;-73
2022/12/27 22:30:28;;;;;;;0.20;0.03;;;10.10;99.90;;;;;;20969454;28;20897;-73
2022/12/27 22:40:32;;;;;;;0.20;0.05;;;10.10;99.90;;;;;;20951788;28;20406;-72
2022/12/27 22:50:50;;;;;;;0.20;0.10;;;10.20;99.90;;;;;;21041560;28;20503;-71
2022/12/27 23:00:54;;;;;;;0.20;0.10;;;10.30;99.90;;;;;;21050278;28;20404;-71
2022/12/27 23:11:03;;;;;;;0.20;0.00;;;10.40;99.90;;;;;;21050335;28;20444;-72
2022/12/27 23:21:08;;;;;;;0.20;0.00;;;10.40;99.90;;;;;;21067484;28;20404;-72
2022/12/27 23:31:27;;;;;;;0.20;0.10;;;10.20;99.90;;;;;;21031620;28;20408;-72
2022/12/27 23:41:31;;;;;;;0.20;0.10;;;10.10;99.90;;;;;;21014955;28;20816;-74
2022/12/27 23:51:37;;;;;;;0.20;0.00;;;10.00;99.90;;;;;;20899250;28;20415;-73
